sensor_id;sensor_type;location;lat;lon;timestamp;temperature;humidity
78793;SHT31;68134;51.984;5.652;2023-12-07T00:01:55;2.5;70.3
78793;SHT31;68134;51.984;5.652;2023-12-07T00:04:23;2.4;69.9
78793;SHT31;68134;51.984;5.652;2023-12-07T00:06:52;2.4;70.1
78793;SHT31;68134;51.984;5.652;2023-12-07T00:09:21;2.4;70.4
78793;SHT31;68134;51.984;5.652;2023-12-07T00:11:49;2.4;70.8
78793;SHT31;68134;51.984;5.652;2023-12-07T00:14:18;2.4;70.6
78793;SHT31;68134;51.984;5.652;2023-12-07T00:16:46;2.3;70.5
78793;SHT31;68134;51.984;5.652;2023-12-07T00:19:15;2.3;71.0
78793;SHT31;68134;51.984;5.652;2023-12-07T00:21:44;2.3;71.4
78793;SHT31;68134;51.984;5.652;2023-12-07T00:24:12;2.3;72.3
78793;SHT31;68134;51.984;5.652;2023-12-07T00:26:41;2.3;72.0
78793;SHT31;68134;51.984;5.652;2023-12-07T00:29:10;2.2;71.8
78793;SHT31;68134;51.984;5.652;2023-12-07T00:31:38;2.2;71.9
78793;SHT31;68134;51.984;5.652;2023-12-07T00:34:07;2.2;71.3
78793;SHT31;68134;51.984;5.652;2023-12-07T00:36:36;2.2;71.3
78793;SHT31;68134;51.984;5.652;2023-12-07T00:39:06;2.2;70.6
78793;SHT31;68134;51.984;5.652;2023-12-07T00:41:35;2.2;71.6
78793;SHT31;68134;51.984;5.652;2023-12-07T00:44:04;2.2;72.1
78793;SHT31;68134;51.984;5.652;2023-12-07T00:46:33;2.2;72.6
78793;SHT31;68134;51.984;5.652;2023-12-07T00:49:01;2.2;72.2
78793;SHT31;68134;51.984;5.652;2023-12-07T00:51:30;2.2;71.5
78793;SHT31;68134;51.984;5.652;2023-12-07T00:53:58;2.2;71.7
78793;SHT31;68134;51.984;5.652;2023-12-07T00:56:27;2.2;72.3
78793;SHT31;68134;51.984;5.652;2023-12-07T00:58:56;2.2;71.8
78793;SHT31;68134;51.984;5.652;2023-12-07T01:01:24;2.2;71.8
78793;SHT31;68134;51.984;5.652;2023-12-07T01:03:53;2.2;71.7
78793;SHT31;68134;51.984;5.652;2023-12-07T01:06:21;2.2;71.7
78793;SHT31;68134;51.984;5.652;2023-12-07T01:08:50;2.2;71.5
78793;SHT31;68134;51.984;5.652;2023-12-07T01:11:19;2.2;71.0
78793;SHT31;68134;51.984;5.652;2023-12-07T01:13:47;2.2;71.3
78793;SHT31;68134;51.984;5.652;2023-12-07T01:16:16;2.2;71.3
78793;SHT31;68134;51.984;5.652;2023-12-07T01:18:47;2.1;70.8
78793;SHT31;68134;51.984;5.652;2023-12-07T01:21:15;2.1;70.6
78793;SHT31;68134;51.984;5.652;2023-12-07T01:23:44;2.1;70.7
78793;SHT31;68134;51.984;5.652;2023-12-07T01:26:12;2.1;70.8
78793;SHT31;68134;51.984;5.652;2023-12-07T01:28:41;2.1;71.8
78793;SHT31;68134;51.984;5.652;2023-12-07T01:31:10;2.1;72.4
78793;SHT31;68134;51.984;5.652;2023-12-07T01:33:38;2.1;73.5
78793;SHT31;68134;51.984;5.652;2023-12-07T01:36:08;2.1;74.2
78793;SHT31;68134;51.984;5.652;2023-12-07T01:38:38;2.2;74.1
78793;SHT31;68134;51.984;5.652;2023-12-07T01:41:07;2.2;73.6
78793;SHT31;68134;51.984;5.652;2023-12-07T01:43:36;2.2;72.9
78793;SHT31;68134;51.984;5.652;2023-12-07T01:46:05;2.2;72.9
78793;SHT31;68134;51.984;5.652;2023-12-07T01:48:33;2.3;72.9
78793;SHT31;68134;51.984;5.652;2023-12-07T01:51:03;2.3;72.2
78793;SHT31;68134;51.984;5.652;2023-12-07T01:53:33;2.3;71.9
78793;SHT31;68134;51.984;5.652;2023-12-07T01:56:02;2.4;72.7
78793;SHT31;68134;51.984;5.652;2023-12-07T01:58:31;2.4;73.0
78793;SHT31;68134;51.984;5.652;2023-12-07T02:01:00;2.4;73.2
78793;SHT31;68134;51.984;5.652;2023-12-07T02:03:31;2.4;73.6
78793;SHT31;68134;51.984;5.652;2023-12-07T02:06:01;2.4;74.5
78793;SHT31;68134;51.984;5.652;2023-12-07T02:08:30;2.5;74.8
78793;SHT31;68134;51.984;5.652;2023-12-07T02:10:59;2.5;75.2
78793;SHT31;68134;51.984;5.652;2023-12-07T02:13:28;2.5;75.4
78793;SHT31;68134;51.984;5.652;2023-12-07T02:15:58;2.5;75.7
78793;SHT31;68134;51.984;5.652;2023-12-07T02:18:37;2.6;75.7
78793;SHT31;68134;51.984;5.652;2023-12-07T02:21:16;2.6;75.9
78793;SHT31;68134;51.984;5.652;2023-12-07T02:23:47;2.7;76.1
78793;SHT31;68134;51.984;5.652;2023-12-07T02:26:20;2.7;75.8
78793;SHT31;68134;51.984;5.652;2023-12-07T02:28:49;2.8;76.0
78793;SHT31;68134;51.984;5.652;2023-12-07T02:31:20;2.8;76.0
78793;SHT31;68134;51.984;5.652;2023-12-07T02:33:49;2.8;76.1
78793;SHT31;68134;51.984;5.652;2023-12-07T02:36:20;2.9;76.2
78793;SHT31;68134;51.984;5.652;2023-12-07T02:38:53;2.9;76.4
78793;SHT31;68134;51.984;5.652;2023-12-07T02:41:24;2.9;76.5
78793;SHT31;68134;51.984;5.652;2023-12-07T02:43:54;2.9;76.5
78793;SHT31;68134;51.984;5.652;2023-12-07T02:46:24;2.9;76.7
78793;SHT31;68134;51.984;5.652;2023-12-07T02:48:53;3.0;76.7
78793;SHT31;68134;51.984;5.652;2023-12-07T02:51:21;3.0;76.8
78793;SHT31;68134;51.984;5.652;2023-12-07T02:53:50;3.0;76.9
78793;SHT31;68134;51.984;5.652;2023-12-07T02:56:18;3.0;76.6
78793;SHT31;68134;51.984;5.652;2023-12-07T02:58:47;3.0;76.5
78793;SHT31;68134;51.984;5.652;2023-12-07T03:01:16;3.0;76.3
78793;SHT31;68134;51.984;5.652;2023-12-07T03:03:44;3.1;76.2
78793;SHT31;68134;51.984;5.652;2023-12-07T03:06:13;3.1;76.3
78793;SHT31;68134;51.984;5.652;2023-12-07T03:08:42;3.1;76.1
78793;SHT31;68134;51.984;5.652;2023-12-07T03:11:11;3.1;75.9
78793;SHT31;68134;51.984;5.652;2023-12-07T03:13:39;3.2;75.7
78793;SHT31;68134;51.984;5.652;2023-12-07T03:16:11;3.2;75.6
78793;SHT31;68134;51.984;5.652;2023-12-07T03:18:40;3.2;75.4
78793;SHT31;68134;51.984;5.652;2023-12-07T03:21:10;3.2;75.3
78793;SHT31;68134;51.984;5.652;2023-12-07T03:23:39;3.2;75.3
78793;SHT31;68134;51.984;5.652;2023-12-07T03:26:08;3.2;75.0
78793;SHT31;68134;51.984;5.652;2023-12-07T03:28:37;3.2;75.0
78793;SHT31;68134;51.984;5.652;2023-12-07T03:31:08;3.2;74.6
78793;SHT31;68134;51.984;5.652;2023-12-07T03:33:36;3.2;74.5
78793;SHT31;68134;51.984;5.652;2023-12-07T03:36:05;3.2;74.3
78793;SHT31;68134;51.984;5.652;2023-12-07T03:38:36;3.2;74.1
78793;SHT31;68134;51.984;5.652;2023-12-07T03:41:05;3.2;73.9
78793;SHT31;68134;51.984;5.652;2023-12-07T03:43:35;3.1;74.0
78793;SHT31;68134;51.984;5.652;2023-12-07T03:46:06;3.1;74.2
78793;SHT31;68134;51.984;5.652;2023-12-07T03:48:35;3.1;74.3
78793;SHT31;68134;51.984;5.652;2023-12-07T03:51:04;3.1;74.4
78793;SHT31;68134;51.984;5.652;2023-12-07T03:53:33;3.0;74.3
78793;SHT31;68134;51.984;5.652;2023-12-07T03:56:01;3.0;74.3
78793;SHT31;68134;51.984;5.652;2023-12-07T03:58:30;3.0;74.4
78793;SHT31;68134;51.984;5.652;2023-12-07T04:00:58;3.0;74.6
78793;SHT31;68134;51.984;5.652;2023-12-07T04:03:27;2.9;75.0
78793;SHT31;68134;51.984;5.652;2023-12-07T04:05:56;2.9;75.1
78793;SHT31;68134;51.984;5.652;2023-12-07T04:08:24;2.9;75.1
78793;SHT31;68134;51.984;5.652;2023-12-07T04:10:53;2.8;75.1
78793;SHT31;68134;51.984;5.652;2023-12-07T04:13:21;2.8;75.2
78793;SHT31;68134;51.984;5.652;2023-12-07T04:15:50;2.8;75.1
78793;SHT31;68134;51.984;5.652;2023-12-07T04:18:18;2.8;75.5
78793;SHT31;68134;51.984;5.652;2023-12-07T04:20:47;2.8;75.7
78793;SHT31;68134;51.984;5.652;2023-12-07T04:23:16;2.7;75.4
78793;SHT31;68134;51.984;5.652;2023-12-07T04:25:45;2.7;75.2
78793;SHT31;68134;51.984;5.652;2023-12-07T04:28:14;2.7;74.9
78793;SHT31;68134;51.984;5.652;2023-12-07T04:30:43;2.7;75.0
78793;SHT31;68134;51.984;5.652;2023-12-07T04:33:11;2.7;74.7
78793;SHT31;68134;51.984;5.652;2023-12-07T04:35:40;2.7;74.8
78793;SHT31;68134;51.984;5.652;2023-12-07T04:38:09;2.7;75.4
78793;SHT31;68134;51.984;5.652;2023-12-07T04:40:37;2.7;76.3
78793;SHT31;68134;51.984;5.652;2023-12-07T04:43:06;2.8;76.7
78793;SHT31;68134;51.984;5.652;2023-12-07T04:45:34;2.8;77.0
78793;SHT31;68134;51.984;5.652;2023-12-07T04:48:03;2.8;77.1
78793;SHT31;68134;51.984;5.652;2023-12-07T04:50:32;2.9;77.0
78793;SHT31;68134;51.984;5.652;2023-12-07T04:53:01;2.9;77.3
78793;SHT31;68134;51.984;5.652;2023-12-07T04:55:29;3.0;77.6
78793;SHT31;68134;51.984;5.652;2023-12-07T04:57:58;3.0;77.5
78793;SHT31;68134;51.984;5.652;2023-12-07T05:00:27;3.1;77.4
78793;SHT31;68134;51.984;5.652;2023-12-07T05:02:55;3.1;77.3
78793;SHT31;68134;51.984;5.652;2023-12-07T05:05:24;3.1;77.1
78793;SHT31;68134;51.984;5.652;2023-12-07T05:07:52;3.2;77.1
78793;SHT31;68134;51.984;5.652;2023-12-07T05:10:21;3.2;77.0
78793;SHT31;68134;51.984;5.652;2023-12-07T05:12:50;3.2;76.8
78793;SHT31;68134;51.984;5.652;2023-12-07T05:15:19;3.2;76.7
78793;SHT31;68134;51.984;5.652;2023-12-07T05:17:47;3.3;76.6
78793;SHT31;68134;51.984;5.652;2023-12-07T05:20:16;3.3;76.5
78793;SHT31;68134;51.984;5.652;2023-12-07T05:22:48;3.2;76.4
78793;SHT31;68134;51.984;5.652;2023-12-07T05:25:17;3.2;76.3
78793;SHT31;68134;51.984;5.652;2023-12-07T05:27:48;3.2;76.3
78793;SHT31;68134;51.984;5.652;2023-12-07T05:30:17;3.2;76.3
78793;SHT31;68134;51.984;5.652;2023-12-07T05:32:46;3.2;76.3
78793;SHT31;68134;51.984;5.652;2023-12-07T05:35:15;3.1;76.3
78793;SHT31;68134;51.984;5.652;2023-12-07T05:37:43;3.1;76.3
78793;SHT31;68134;51.984;5.652;2023-12-07T05:40:12;3.1;76.1
78793;SHT31;68134;51.984;5.652;2023-12-07T05:42:42;3.1;76.2
78793;SHT31;68134;51.984;5.652;2023-12-07T05:45:11;3.1;76.2
78793;SHT31;68134;51.984;5.652;2023-12-07T05:47:40;3.1;76.1
78793;SHT31;68134;51.984;5.652;2023-12-07T05:50:09;3.0;75.8
78793;SHT31;68134;51.984;5.652;2023-12-07T05:52:38;3.0;76.0
78793;SHT31;68134;51.984;5.652;2023-12-07T05:55:07;3.0;76.1
78793;SHT31;68134;51.984;5.652;2023-12-07T05:57:36;2.9;76.2
78793;SHT31;68134;51.984;5.652;2023-12-07T06:00:06;2.9;76.2
78793;SHT31;68134;51.984;5.652;2023-12-07T06:02:36;2.9;76.2
78793;SHT31;68134;51.984;5.652;2023-12-07T06:05:05;2.8;75.9
78793;SHT31;68134;51.984;5.652;2023-12-07T06:07:33;2.8;75.9
78793;SHT31;68134;51.984;5.652;2023-12-07T06:10:02;2.7;76.3
78793;SHT31;68134;51.984;5.652;2023-12-07T06:12:32;2.7;76.4
78793;SHT31;68134;51.984;5.652;2023-12-07T06:15:00;2.7;76.9
78793;SHT31;68134;51.984;5.652;2023-12-07T06:17:29;2.6;77.1
78793;SHT31;68134;51.984;5.652;2023-12-07T06:19:58;2.6;77.2
78793;SHT31;68134;51.984;5.652;2023-12-07T06:22:26;2.6;77.2
78793;SHT31;68134;51.984;5.652;2023-12-07T06:24:56;2.6;77.3
78793;SHT31;68134;51.984;5.652;2023-12-07T06:27:24;2.6;77.2
78793;SHT31;68134;51.984;5.652;2023-12-07T06:29:53;2.6;76.7
78793;SHT31;68134;51.984;5.652;2023-12-07T06:32:21;2.6;76.5
78793;SHT31;68134;51.984;5.652;2023-12-07T06:34:50;2.6;76.9
78793;SHT31;68134;51.984;5.652;2023-12-07T06:37:19;2.6;76.8
78793;SHT31;68134;51.984;5.652;2023-12-07T06:39:48;2.6;76.6
78793;SHT31;68134;51.984;5.652;2023-12-07T06:42:17;2.6;76.2
78793;SHT31;68134;51.984;5.652;2023-12-07T06:44:46;2.6;76.2
78793;SHT31;68134;51.984;5.652;2023-12-07T06:47:16;2.5;76.4
78793;SHT31;68134;51.984;5.652;2023-12-07T06:49:45;2.5;76.1
78793;SHT31;68134;51.984;5.652;2023-12-07T06:52:15;2.5;76.2
78793;SHT31;68134;51.984;5.652;2023-12-07T06:54:44;2.5;76.3
78793;SHT31;68134;51.984;5.652;2023-12-07T06:57:13;2.5;76.3
78793;SHT31;68134;51.984;5.652;2023-12-07T06:59:43;2.4;76.3
78793;SHT31;68134;51.984;5.652;2023-12-07T07:02:13;2.4;76.5
78793;SHT31;68134;51.984;5.652;2023-12-07T07:04:42;2.4;76.8
78793;SHT31;68134;51.984;5.652;2023-12-07T07:07:10;2.4;76.8
78793;SHT31;68134;51.984;5.652;2023-12-07T07:09:39;2.4;76.7
78793;SHT31;68134;51.984;5.652;2023-12-07T07:12:08;2.5;76.7
78793;SHT31;68134;51.984;5.652;2023-12-07T07:14:37;2.5;76.6
78793;SHT31;68134;51.984;5.652;2023-12-07T07:17:06;2.5;76.6
78793;SHT31;68134;51.984;5.652;2023-12-07T07:19:35;2.5;76.5
78793;SHT31;68134;51.984;5.652;2023-12-07T07:22:03;2.5;76.1
78793;SHT31;68134;51.984;5.652;2023-12-07T07:24:33;2.5;76.2
78793;SHT31;68134;51.984;5.652;2023-12-07T07:27:01;2.5;76.3
78793;SHT31;68134;51.984;5.652;2023-12-07T07:29:33;2.5;76.2
78793;SHT31;68134;51.984;5.652;2023-12-07T07:32:02;2.5;76.7
78793;SHT31;68134;51.984;5.652;2023-12-07T07:34:32;2.5;76.7
78793;SHT31;68134;51.984;5.652;2023-12-07T07:37:01;2.5;76.8
78793;SHT31;68134;51.984;5.652;2023-12-07T07:39:30;2.5;76.7
78793;SHT31;68134;51.984;5.652;2023-12-07T07:41:58;2.5;76.6
78793;SHT31;68134;51.984;5.652;2023-12-07T07:44:27;2.5;76.4
78793;SHT31;68134;51.984;5.652;2023-12-07T07:46:56;2.5;76.6
78793;SHT31;68134;51.984;5.652;2023-12-07T07:49:25;2.5;76.4
78793;SHT31;68134;51.984;5.652;2023-12-07T07:51:53;2.5;76.2
78793;SHT31;68134;51.984;5.652;2023-12-07T07:54:22;2.5;76.7
78793;SHT31;68134;51.984;5.652;2023-12-07T07:56:51;2.5;76.5
78793;SHT31;68134;51.984;5.652;2023-12-07T07:59:20;2.5;76.4
78793;SHT31;68134;51.984;5.652;2023-12-07T08:01:49;2.5;76.2
78793;SHT31;68134;51.984;5.652;2023-12-07T08:04:19;2.5;76.3
78793;SHT31;68134;51.984;5.652;2023-12-07T08:06:48;2.5;76.6
78793;SHT31;68134;51.984;5.652;2023-12-07T08:09:17;2.4;77.0
78793;SHT31;68134;51.984;5.652;2023-12-07T08:11:46;2.4;76.8
78793;SHT31;68134;51.984;5.652;2023-12-07T08:14:14;2.4;76.4
78793;SHT31;68134;51.984;5.652;2023-12-07T08:16:44;2.4;76.3
78793;SHT31;68134;51.984;5.652;2023-12-07T08:19:14;2.4;76.6
78793;SHT31;68134;51.984;5.652;2023-12-07T08:21:42;2.4;76.8
78793;SHT31;68134;51.984;5.652;2023-12-07T08:24:11;2.3;76.9
78793;SHT31;68134;51.984;5.652;2023-12-07T08:26:40;2.3;77.2
78793;SHT31;68134;51.984;5.652;2023-12-07T08:29:09;2.3;77.3
78793;SHT31;68134;51.984;5.652;2023-12-07T08:31:38;2.3;77.3
78793;SHT31;68134;51.984;5.652;2023-12-07T08:34:06;2.3;77.5
78793;SHT31;68134;51.984;5.652;2023-12-07T08:36:35;2.3;77.6
78793;SHT31;68134;51.984;5.652;2023-12-07T08:39:03;2.4;77.3
78793;SHT31;68134;51.984;5.652;2023-12-07T08:41:36;2.4;76.7
78793;SHT31;68134;51.984;5.652;2023-12-07T08:44:05;2.4;76.6
78793;SHT31;68134;51.984;5.652;2023-12-07T08:46:33;2.3;76.6
78793;SHT31;68134;51.984;5.652;2023-12-07T08:49:03;2.3;77.1
78793;SHT31;68134;51.984;5.652;2023-12-07T08:51:32;2.3;77.4
78793;SHT31;68134;51.984;5.652;2023-12-07T08:54:01;2.3;77.5
78793;SHT31;68134;51.984;5.652;2023-12-07T08:56:31;2.3;77.6
78793;SHT31;68134;51.984;5.652;2023-12-07T08:59:00;2.4;77.7
78793;SHT31;68134;51.984;5.652;2023-12-07T09:01:28;2.4;77.2
78793;SHT31;68134;51.984;5.652;2023-12-07T09:03:59;2.4;77.1
78793;SHT31;68134;51.984;5.652;2023-12-07T09:06:28;2.4;76.9
78793;SHT31;68134;51.984;5.652;2023-12-07T09:08:57;2.4;77.2
78793;SHT31;68134;51.984;5.652;2023-12-07T09:11:27;2.4;77.6
78793;SHT31;68134;51.984;5.652;2023-12-07T09:13:57;2.5;77.4
78793;SHT31;68134;51.984;5.652;2023-12-07T09:16:29;2.5;77.3
78793;SHT31;68134;51.984;5.652;2023-12-07T09:18:57;2.5;77.6
78793;SHT31;68134;51.984;5.652;2023-12-07T09:21:26;2.5;77.1
78793;SHT31;68134;51.984;5.652;2023-12-07T09:23:55;2.5;77.3
78793;SHT31;68134;51.984;5.652;2023-12-07T09:26:23;2.5;77.2
78793;SHT31;68134;51.984;5.652;2023-12-07T09:28:52;2.5;77.2
78793;SHT31;68134;51.984;5.652;2023-12-07T09:31:20;2.5;77.0
78793;SHT31;68134;51.984;5.652;2023-12-07T09:33:49;2.5;77.0
78793;SHT31;68134;51.984;5.652;2023-12-07T09:36:20;2.5;77.3
78793;SHT31;68134;51.984;5.652;2023-12-07T09:38:52;2.5;77.3
78793;SHT31;68134;51.984;5.652;2023-12-07T09:41:22;2.5;77.6
78793;SHT31;68134;51.984;5.652;2023-12-07T09:43:52;2.5;77.8
78793;SHT31;68134;51.984;5.652;2023-12-07T09:46:24;2.5;77.9
78793;SHT31;68134;51.984;5.652;2023-12-07T09:48:52;2.5;78.0
78793;SHT31;68134;51.984;5.652;2023-12-07T09:51:22;2.5;78.0
78793;SHT31;68134;51.984;5.652;2023-12-07T09:53:52;2.5;78.2
78793;SHT31;68134;51.984;5.652;2023-12-07T09:56:21;2.5;78.2
78793;SHT31;68134;51.984;5.652;2023-12-07T09:58:49;2.5;78.2
78793;SHT31;68134;51.984;5.652;2023-12-07T10:01:18;2.5;78.1
78793;SHT31;68134;51.984;5.652;2023-12-07T10:03:48;2.5;78.2
78793;SHT31;68134;51.984;5.652;2023-12-07T10:06:17;2.5;78.3
78793;SHT31;68134;51.984;5.652;2023-12-07T10:08:46;2.5;78.5
78793;SHT31;68134;51.984;5.652;2023-12-07T10:11:16;2.5;78.5
78793;SHT31;68134;51.984;5.652;2023-12-07T10:13:45;2.5;78.5
78793;SHT31;68134;51.984;5.652;2023-12-07T10:16:15;2.6;78.5
78793;SHT31;68134;51.984;5.652;2023-12-07T10:18:45;2.6;78.4
78793;SHT31;68134;51.984;5.652;2023-12-07T10:21:16;2.6;78.6
78793;SHT31;68134;51.984;5.652;2023-12-07T10:23:45;2.6;78.7
78793;SHT31;68134;51.984;5.652;2023-12-07T10:26:18;2.6;78.9
78793;SHT31;68134;51.984;5.652;2023-12-07T10:28:51;2.6;79.2
78793;SHT31;68134;51.984;5.652;2023-12-07T10:31:20;2.7;79.2
78793;SHT31;68134;51.984;5.652;2023-12-07T10:33:50;2.7;79.0
78793;SHT31;68134;51.984;5.652;2023-12-07T10:36:19;2.8;79.0
78793;SHT31;68134;51.984;5.652;2023-12-07T10:38:48;2.8;79.0
78793;SHT31;68134;51.984;5.652;2023-12-07T10:41:19;2.9;78.9
78793;SHT31;68134;51.984;5.652;2023-12-07T10:43:52;2.9;78.7
78793;SHT31;68134;51.984;5.652;2023-12-07T10:46:22;2.9;78.9
78793;SHT31;68134;51.984;5.652;2023-12-07T10:48:54;3.0;78.8
78793;SHT31;68134;51.984;5.652;2023-12-07T10:51:35;3.0;78.8
78793;SHT31;68134;51.984;5.652;2023-12-07T10:54:07;3.0;78.7
78793;SHT31;68134;51.984;5.652;2023-12-07T10:56:42;3.1;78.9
78793;SHT31;68134;51.984;5.652;2023-12-07T10:59:12;3.1;79.1
78793;SHT31;68134;51.984;5.652;2023-12-07T11:01:42;3.2;79.1
78793;SHT31;68134;51.984;5.652;2023-12-07T11:04:13;3.2;79.0
78793;SHT31;68134;51.984;5.652;2023-12-07T11:06:46;3.3;78.7
78793;SHT31;68134;51.984;5.652;2023-12-07T11:09:21;3.3;78.6
78793;SHT31;68134;51.984;5.652;2023-12-07T11:11:56;3.3;78.7
78793;SHT31;68134;51.984;5.652;2023-12-07T11:14:26;3.4;78.7
78793;SHT31;68134;51.984;5.652;2023-12-07T11:16:56;3.4;78.8
78793;SHT31;68134;51.984;5.652;2023-12-07T11:19:47;3.5;78.6
78793;SHT31;68134;51.984;5.652;2023-12-07T11:22:16;3.5;78.7
78793;SHT31;68134;51.984;5.652;2023-12-07T11:24:56;3.6;78.7
78793;SHT31;68134;51.984;5.652;2023-12-07T11:27:29;3.6;78.6
78793;SHT31;68134;51.984;5.652;2023-12-07T11:30:00;3.7;78.7
78793;SHT31;68134;51.984;5.652;2023-12-07T11:32:29;3.7;78.4
78793;SHT31;68134;51.984;5.652;2023-12-07T11:35:02;3.8;78.4
78793;SHT31;68134;51.984;5.652;2023-12-07T11:38:05;3.8;78.2
78793;SHT31;68134;51.984;5.652;2023-12-07T11:40:37;3.9;78.2
78793;SHT31;68134;51.984;5.652;2023-12-07T11:43:19;3.9;78.0
78793;SHT31;68134;51.984;5.652;2023-12-07T11:45:52;3.9;78.0
78793;SHT31;68134;51.984;5.652;2023-12-07T11:48:20;3.9;78.4
78793;SHT31;68134;51.984;5.652;2023-12-07T11:51:00;4.0;78.1
78793;SHT31;68134;51.984;5.652;2023-12-07T11:53:30;4.0;78.0
78793;SHT31;68134;51.984;5.652;2023-12-07T11:56:00;4.0;78.0
78793;SHT31;68134;51.984;5.652;2023-12-07T11:58:30;4.0;77.9
78793;SHT31;68134;51.984;5.652;2023-12-07T12:01:03;4.1;77.8
78793;SHT31;68134;51.984;5.652;2023-12-07T12:03:32;4.1;77.9
78793;SHT31;68134;51.984;5.652;2023-12-07T12:06:03;4.1;77.7
78793;SHT31;68134;51.984;5.652;2023-12-07T12:08:32;4.1;77.5
78793;SHT31;68134;51.984;5.652;2023-12-07T12:11:01;4.1;77.6
78793;SHT31;68134;51.984;5.652;2023-12-07T12:13:33;4.2;77.5
78793;SHT31;68134;51.984;5.652;2023-12-07T12:16:03;4.2;77.7
78793;SHT31;68134;51.984;5.652;2023-12-07T12:18:32;4.2;78.1
78793;SHT31;68134;51.984;5.652;2023-12-07T12:21:01;4.2;78.1
78793;SHT31;68134;51.984;5.652;2023-12-07T12:23:30;4.3;77.6
78793;SHT31;68134;51.984;5.652;2023-12-07T12:25:59;4.3;77.7
78793;SHT31;68134;51.984;5.652;2023-12-07T12:28:29;4.3;77.5
78793;SHT31;68134;51.984;5.652;2023-12-07T12:31:01;4.3;77.5
78793;SHT31;68134;51.984;5.652;2023-12-07T12:33:30;4.3;77.8
78793;SHT31;68134;51.984;5.652;2023-12-07T12:36:05;4.4;77.8
78793;SHT31;68134;51.984;5.652;2023-12-07T12:38:36;4.4;77.8
78793;SHT31;68134;51.984;5.652;2023-12-07T12:41:06;4.5;77.8
78793;SHT31;68134;51.984;5.652;2023-12-07T12:43:35;4.5;77.8
78793;SHT31;68134;51.984;5.652;2023-12-07T12:46:04;4.5;77.7
78793;SHT31;68134;51.984;5.652;2023-12-07T12:48:32;4.6;77.5
78793;SHT31;68134;51.984;5.652;2023-12-07T12:51:10;4.6;77.8
78793;SHT31;68134;51.984;5.652;2023-12-07T12:53:44;4.7;77.6
78793;SHT31;68134;51.984;5.652;2023-12-07T12:56:14;4.7;77.7
78793;SHT31;68134;51.984;5.652;2023-12-07T12:58:44;4.8;78.1
78793;SHT31;68134;51.984;5.652;2023-12-07T13:01:13;4.9;78.4
78793;SHT31;68134;51.984;5.652;2023-12-07T13:03:44;4.9;77.4
78793;SHT31;68134;51.984;5.652;2023-12-07T13:06:14;5.0;76.6
78793;SHT31;68134;51.984;5.652;2023-12-07T13:08:45;5.0;76.4
78793;SHT31;68134;51.984;5.652;2023-12-07T13:11:17;5.0;76.3
78793;SHT31;68134;51.984;5.652;2023-12-07T13:13:47;5.0;76.4
78793;SHT31;68134;51.984;5.652;2023-12-07T13:16:16;5.0;76.4
78793;SHT31;68134;51.984;5.652;2023-12-07T13:18:46;5.0;76.4
78793;SHT31;68134;51.984;5.652;2023-12-07T13:21:15;5.1;76.3
78793;SHT31;68134;51.984;5.652;2023-12-07T13:23:46;5.1;76.0
78793;SHT31;68134;51.984;5.652;2023-12-07T13:26:15;5.1;76.0
78793;SHT31;68134;51.984;5.652;2023-12-07T13:28:45;5.1;75.9
78793;SHT31;68134;51.984;5.652;2023-12-07T13:31:14;5.1;75.4
78793;SHT31;68134;51.984;5.652;2023-12-07T13:33:43;5.1;75.5
78793;SHT31;68134;51.984;5.652;2023-12-07T13:36:11;5.1;75.4
78793;SHT31;68134;51.984;5.652;2023-12-07T13:38:44;5.1;75.6
78793;SHT31;68134;51.984;5.652;2023-12-07T13:41:13;5.1;75.3
78793;SHT31;68134;51.984;5.652;2023-12-07T13:43:45;5.0;75.5
78793;SHT31;68134;51.984;5.652;2023-12-07T13:46:14;5.0;75.6
78793;SHT31;68134;51.984;5.652;2023-12-07T13:48:43;5.0;75.4
78793;SHT31;68134;51.984;5.652;2023-12-07T13:51:13;5.0;75.2
78793;SHT31;68134;51.984;5.652;2023-12-07T13:53:43;5.0;74.2
78793;SHT31;68134;51.984;5.652;2023-12-07T13:56:12;5.0;73.9
78793;SHT31;68134;51.984;5.652;2023-12-07T13:58:43;4.9;74.1
78793;SHT31;68134;51.984;5.652;2023-12-07T14:01:11;4.9;74.5
78793;SHT31;68134;51.984;5.652;2023-12-07T14:03:42;4.8;74.8
78793;SHT31;68134;51.984;5.652;2023-12-07T14:06:10;4.8;74.7
78793;SHT31;68134;51.984;5.652;2023-12-07T14:08:40;4.8;74.7
78793;SHT31;68134;51.984;5.652;2023-12-07T14:11:09;4.7;74.7
78793;SHT31;68134;51.984;5.652;2023-12-07T14:13:39;4.7;74.9
78793;SHT31;68134;51.984;5.652;2023-12-07T14:16:08;4.7;75.0
78793;SHT31;68134;51.984;5.652;2023-12-07T14:18:36;4.6;75.3
78793;SHT31;68134;51.984;5.652;2023-12-07T14:21:05;4.6;75.6
78793;SHT31;68134;51.984;5.652;2023-12-07T14:23:34;4.6;75.6
78793;SHT31;68134;51.984;5.652;2023-12-07T14:26:06;4.6;75.6
78793;SHT31;68134;51.984;5.652;2023-12-07T14:28:37;4.6;75.8
78793;SHT31;68134;51.984;5.652;2023-12-07T14:31:07;4.6;75.4
78793;SHT31;68134;51.984;5.652;2023-12-07T14:33:40;4.6;75.3
78793;SHT31;68134;51.984;5.652;2023-12-07T14:36:11;4.5;75.3
78793;SHT31;68134;51.984;5.652;2023-12-07T14:38:40;4.5;75.4
78793;SHT31;68134;51.984;5.652;2023-12-07T14:41:09;4.5;75.6
78793;SHT31;68134;51.984;5.652;2023-12-07T14:43:40;4.5;75.8
78793;SHT31;68134;51.984;5.652;2023-12-07T14:46:09;4.5;75.6
78793;SHT31;68134;51.984;5.652;2023-12-07T14:48:38;4.4;75.5
78793;SHT31;68134;51.984;5.652;2023-12-07T14:51:09;4.4;75.5
78793;SHT31;68134;51.984;5.652;2023-12-07T14:53:37;4.4;75.7
78793;SHT31;68134;51.984;5.652;2023-12-07T14:56:07;4.4;75.6
78793;SHT31;68134;51.984;5.652;2023-12-07T14:58:35;4.4;75.9
78793;SHT31;68134;51.984;5.652;2023-12-07T15:01:06;4.3;76.1
78793;SHT31;68134;51.984;5.652;2023-12-07T15:03:35;4.3;76.2
78793;SHT31;68134;51.984;5.652;2023-12-07T15:06:04;4.3;76.3
78793;SHT31;68134;51.984;5.652;2023-12-07T15:08:33;4.3;76.6
78793;SHT31;68134;51.984;5.652;2023-12-07T15:11:01;4.3;76.4
78793;SHT31;68134;51.984;5.652;2023-12-07T15:13:30;4.3;76.5
78793;SHT31;68134;51.984;5.652;2023-12-07T15:15:59;4.3;76.3
78793;SHT31;68134;51.984;5.652;2023-12-07T15:18:30;4.3;76.4
78793;SHT31;68134;51.984;5.652;2023-12-07T15:21:01;4.4;75.8
78793;SHT31;68134;51.984;5.652;2023-12-07T15:23:31;4.4;76.1
78793;SHT31;68134;51.984;5.652;2023-12-07T15:25:59;4.4;76.4
78793;SHT31;68134;51.984;5.652;2023-12-07T15:28:30;4.4;76.7
78793;SHT31;68134;51.984;5.652;2023-12-07T15:30:58;4.3;77.1
78793;SHT31;68134;51.984;5.652;2023-12-07T15:33:27;4.3;77.1
78793;SHT31;68134;51.984;5.652;2023-12-07T15:35:56;4.3;77.2
78793;SHT31;68134;51.984;5.652;2023-12-07T15:38:26;4.3;77.3
78793;SHT31;68134;51.984;5.652;2023-12-07T15:40:57;4.3;77.4
78793;SHT31;68134;51.984;5.652;2023-12-07T15:43:29;4.3;77.3
78793;SHT31;68134;51.984;5.652;2023-12-07T15:46:00;4.2;77.3
78793;SHT31;68134;51.984;5.652;2023-12-07T15:48:29;4.2;77.3
78793;SHT31;68134;51.984;5.652;2023-12-07T15:50:58;4.2;77.6
78793;SHT31;68134;51.984;5.652;2023-12-07T15:53:27;4.2;77.4
78793;SHT31;68134;51.984;5.652;2023-12-07T15:55:56;4.2;77.6
78793;SHT31;68134;51.984;5.652;2023-12-07T15:58:25;4.2;78.0
78793;SHT31;68134;51.984;5.652;2023-12-07T16:00:53;4.1;78.0
78793;SHT31;68134;51.984;5.652;2023-12-07T16:03:22;4.1;78.3
78793;SHT31;68134;51.984;5.652;2023-12-07T16:05:52;4.1;78.4
78793;SHT31;68134;51.984;5.652;2023-12-07T16:08:22;4.1;78.4
78793;SHT31;68134;51.984;5.652;2023-12-07T16:10:50;4.1;78.4
78793;SHT31;68134;51.984;5.652;2023-12-07T16:13:19;4.1;78.5
78793;SHT31;68134;51.984;5.652;2023-12-07T16:15:48;4.0;78.5
78793;SHT31;68134;51.984;5.652;2023-12-07T16:18:17;4.0;78.3
78793;SHT31;68134;51.984;5.652;2023-12-07T16:20:45;4.0;78.3
78793;SHT31;68134;51.984;5.652;2023-12-07T16:23:14;4.0;78.3
78793;SHT31;68134;51.984;5.652;2023-12-07T16:25:43;4.0;78.2
78793;SHT31;68134;51.984;5.652;2023-12-07T16:28:14;4.0;78.1
78793;SHT31;68134;51.984;5.652;2023-12-07T16:30:42;4.0;77.9
78793;SHT31;68134;51.984;5.652;2023-12-07T16:33:11;4.0;77.8